sensor_id;sensor_type;location;lat;lon;timestamp;P1;durP1;ratioP1;P2;durP2;ratioP2
71207;SDS011;58938;49.868;8.646;2023-05-16T00:00:34;30.30;;;16.33;;
71207;SDS011;58938;49.868;8.646;2023-05-16T00:03:01;31.45;;;16.17;;
71207;SDS011;58938;49.868;8.646;2023-05-16T00:05:27;33.13;;;17.55;;
71207;SDS011;58938;49.868;8.646;2023-05-16T00:07:53;32.87;;;16.33;;
71207;SDS011;58938;49.868;8.646;2023-05-16T00:10:19;29.85;;;16.67;;
71207;SDS011;58938;49.868;8.646;2023-05-16T00:12:45;32.47;;;16.85;;
71207;SDS011;58938;49.868;8.646;2023-05-16T00:15:15;33.22;;;16.80;;
71207;SDS011;58938;49.868;8.646;2023-05-16T00:17:45;34.08;;;17.98;;
71207;SDS011;58938;49.868;8.646;2023-05-16T00:20:12;34.13;;;18.47;;
71207;SDS011;58938;49.868;8.646;2023-05-16T00:22:38;34.05;;;17.52;;
71207;SDS011;58938;49.868;8.646;2023-05-16T00:25:04;34.47;;;17.20;;
71207;SDS011;58938;49.868;8.646;2023-05-16T00:27:32;34.55;;;17.98;;
71207;SDS011;58938;49.868;8.646;2023-05-16T00:29:58;37.40;;;18.67;;
71207;SDS011;58938;49.868;8.646;2023-05-16T00:32:25;38.40;;;19.93;;
71207;SDS011;58938;49.868;8.646;2023-05-16T00:34:51;36.50;;;18.17;;
71207;SDS011;58938;49.868;8.646;2023-05-16T00:37:17;34.15;;;17.92;;
71207;SDS011;58938;49.868;8.646;2023-05-16T00:39:43;36.53;;;18.85;;
71207;SDS011;58938;49.868;8.646;2023-05-16T00:42:10;38.33;;;19.80;;
71207;SDS011;58938;49.868;8.646;2023-05-16T00:44:36;41.13;;;20.47;;
71207;SDS011;58938;49.868;8.646;2023-05-16T00:47:03;41.03;;;21.27;;
71207;SDS011;58938;49.868;8.646;2023-05-16T00:49:29;38.03;;;20.30;;
71207;SDS011;58938;49.868;8.646;2023-05-16T00:51:55;39.08;;;19.42;;
71207;SDS011;58938;49.868;8.646;2023-05-16T00:54:21;35.33;;;19.57;;
71207;SDS011;58938;49.868;8.646;2023-05-16T00:56:53;38.05;;;19.52;;
71207;SDS011;58938;49.868;8.646;2023-05-16T00:59:22;37.95;;;19.60;;
71207;SDS011;58938;49.868;8.646;2023-05-16T01:01:48;45.15;;;22.35;;
71207;SDS011;58938;49.868;8.646;2023-05-16T01:04:15;45.30;;;21.73;;
71207;SDS011;58938;49.868;8.646;2023-05-16T01:06:42;41.43;;;20.33;;
71207;SDS011;58938;49.868;8.646;2023-05-16T01:09:08;38.28;;;19.27;;
71207;SDS011;58938;49.868;8.646;2023-05-16T01:14:28;37.72;;;20.58;;
71207;SDS011;58938;49.868;8.646;2023-05-16T01:17:20;42.35;;;20.75;;
71207;SDS011;58938;49.868;8.646;2023-05-16T01:22:29;37.47;;;19.20;;
71207;SDS011;58938;49.868;8.646;2023-05-16T01:27:31;40.42;;;20.98;;
71207;SDS011;58938;49.868;8.646;2023-05-16T01:29:59;37.58;;;18.23;;
71207;SDS011;58938;49.868;8.646;2023-05-16T01:32:25;46.70;;;21.37;;
71207;SDS011;58938;49.868;8.646;2023-05-16T01:34:51;36.38;;;19.17;;
71207;SDS011;58938;49.868;8.646;2023-05-16T01:37:28;41.03;;;21.38;;
71207;SDS011;58938;49.868;8.646;2023-05-16T01:39:56;40.78;;;22.33;;
71207;SDS011;58938;49.868;8.646;2023-05-16T01:42:26;43.60;;;22.35;;
71207;SDS011;58938;49.868;8.646;2023-05-16T01:47:44;38.55;;;20.75;;
71207;SDS011;58938;49.868;8.646;2023-05-16T01:50:14;45.47;;;22.02;;
71207;SDS011;58938;49.868;8.646;2023-05-16T01:55:22;37.15;;;19.73;;
71207;SDS011;58938;49.868;8.646;2023-05-16T01:57:49;37.53;;;19.47;;
71207;SDS011;58938;49.868;8.646;2023-05-16T02:00:17;38.80;;;20.98;;
71207;SDS011;58938;49.868;8.646;2023-05-16T02:02:43;38.42;;;21.15;;
71207;SDS011;58938;49.868;8.646;2023-05-16T02:05:09;37.35;;;21.15;;
71207;SDS011;58938;49.868;8.646;2023-05-16T02:07:35;39.10;;;21.57;;
71207;SDS011;58938;49.868;8.646;2023-05-16T02:10:01;37.45;;;19.65;;
71207;SDS011;58938;49.868;8.646;2023-05-16T02:12:28;38.17;;;20.40;;
71207;SDS011;58938;49.868;8.646;2023-05-16T02:14:55;39.17;;;19.85;;
71207;SDS011;58938;49.868;8.646;2023-05-16T02:17:21;36.80;;;18.98;;
71207;SDS011;58938;49.868;8.646;2023-05-16T02:19:46;37.53;;;19.03;;
71207;SDS011;58938;49.868;8.646;2023-05-16T02:22:12;36.88;;;18.60;;
71207;SDS011;58938;49.868;8.646;2023-05-16T02:24:38;38.55;;;19.60;;
71207;SDS011;58938;49.868;8.646;2023-05-16T02:27:04;34.42;;;19.90;;
71207;SDS011;58938;49.868;8.646;2023-05-16T02:29:30;37.13;;;19.93;;
71207;SDS011;58938;49.868;8.646;2023-05-16T02:31:57;38.05;;;20.52;;
71207;SDS011;58938;49.868;8.646;2023-05-16T02:34:24;36.15;;;20.25;;
71207;SDS011;58938;49.868;8.646;2023-05-16T02:36:50;37.60;;;19.88;;
71207;SDS011;58938;49.868;8.646;2023-05-16T02:39:16;36.87;;;19.87;;
71207;SDS011;58938;49.868;8.646;2023-05-16T02:41:42;37.33;;;21.55;;
71207;SDS011;58938;49.868;8.646;2023-05-16T02:44:08;36.45;;;19.23;;
71207;SDS011;58938;49.868;8.646;2023-05-16T02:46:34;35.15;;;18.50;;
71207;SDS011;58938;49.868;8.646;2023-05-16T02:49:01;35.33;;;17.77;;
71207;SDS011;58938;49.868;8.646;2023-05-16T02:51:27;35.07;;;18.67;;
71207;SDS011;58938;49.868;8.646;2023-05-16T02:53:53;34.97;;;18.67;;
71207;SDS011;58938;49.868;8.646;2023-05-16T02:56:26;34.42;;;18.42;;
71207;SDS011;58938;49.868;8.646;2023-05-16T02:58:52;33.25;;;18.80;;
71207;SDS011;58938;49.868;8.646;2023-05-16T03:01:21;41.13;;;18.00;;
71207;SDS011;58938;49.868;8.646;2023-05-16T03:03:48;31.70;;;17.87;;
71207;SDS011;58938;49.868;8.646;2023-05-16T03:06:14;35.03;;;17.30;;
71207;SDS011;58938;49.868;8.646;2023-05-16T03:08:40;33.72;;;18.48;;
71207;SDS011;58938;49.868;8.646;2023-05-16T03:11:06;34.30;;;17.10;;
71207;SDS011;58938;49.868;8.646;2023-05-16T03:13:32;34.80;;;18.13;;
71207;SDS011;58938;49.868;8.646;2023-05-16T03:15:58;33.90;;;17.48;;
71207;SDS011;58938;49.868;8.646;2023-05-16T03:18:24;32.78;;;17.17;;
71207;SDS011;58938;49.868;8.646;2023-05-16T03:20:50;31.25;;;16.90;;
71207;SDS011;58938;49.868;8.646;2023-05-16T03:23:19;32.78;;;17.40;;
71207;SDS011;58938;49.868;8.646;2023-05-16T03:25:46;36.23;;;17.57;;
71207;SDS011;58938;49.868;8.646;2023-05-16T03:28:12;31.35;;;16.83;;
71207;SDS011;58938;49.868;8.646;2023-05-16T03:30:38;36.53;;;17.95;;
71207;SDS011;58938;49.868;8.646;2023-05-16T03:33:06;29.60;;;16.38;;
71207;SDS011;58938;49.868;8.646;2023-05-16T03:35:32;30.27;;;17.80;;
71207;SDS011;58938;49.868;8.646;2023-05-16T03:37:58;32.73;;;17.37;;
71207;SDS011;58938;49.868;8.646;2023-05-16T03:40:24;34.42;;;16.63;;
71207;SDS011;58938;49.868;8.646;2023-05-16T03:42:50;32.25;;;17.75;;
71207;SDS011;58938;49.868;8.646;2023-05-16T03:45:16;37.00;;;17.58;;
71207;SDS011;58938;49.868;8.646;2023-05-16T03:47:42;30.40;;;16.03;;
71207;SDS011;58938;49.868;8.646;2023-05-16T03:50:08;33.58;;;17.33;;
71207;SDS011;58938;49.868;8.646;2023-05-16T03:52:34;33.75;;;18.08;;
71207;SDS011;58938;49.868;8.646;2023-05-16T03:55:01;29.67;;;16.15;;
71207;SDS011;58938;49.868;8.646;2023-05-16T03:57:31;33.60;;;18.73;;
71207;SDS011;58938;49.868;8.646;2023-05-16T03:59:57;32.67;;;17.20;;
71207;SDS011;58938;49.868;8.646;2023-05-16T04:02:24;32.83;;;16.60;;
71207;SDS011;58938;49.868;8.646;2023-05-16T04:04:50;30.33;;;16.58;;
71207;SDS011;58938;49.868;8.646;2023-05-16T04:07:16;34.92;;;17.40;;
71207;SDS011;58938;49.868;8.646;2023-05-16T04:09:42;37.75;;;18.15;;
71207;SDS011;58938;49.868;8.646;2023-05-16T04:12:09;38.40;;;17.70;;
71207;SDS011;58938;49.868;8.646;2023-05-16T04:14:35;32.30;;;17.42;;
71207;SDS011;58938;49.868;8.646;2023-05-16T04:17:01;38.88;;;18.92;;
71207;SDS011;58938;49.868;8.646;2023-05-16T04:19:27;37.60;;;18.38;;
71207;SDS011;58938;49.868;8.646;2023-05-16T04:21:54;35.53;;;17.00;;
71207;SDS011;58938;49.868;8.646;2023-05-16T04:24:20;35.93;;;16.87;;
71207;SDS011;58938;49.868;8.646;2023-05-16T04:26:50;31.38;;;16.55;;
71207;SDS011;58938;49.868;8.646;2023-05-16T04:29:16;32.92;;;15.75;;
71207;SDS011;58938;49.868;8.646;2023-05-16T04:31:42;32.60;;;16.25;;
71207;SDS011;58938;49.868;8.646;2023-05-16T04:34:08;31.20;;;15.65;;
71207;SDS011;58938;49.868;8.646;2023-05-16T04:36:34;33.00;;;15.40;;
71207;SDS011;58938;49.868;8.646;2023-05-16T04:39:02;31.85;;;15.80;;
71207;SDS011;58938;49.868;8.646;2023-05-16T04:41:28;32.30;;;17.08;;
71207;SDS011;58938;49.868;8.646;2023-05-16T04:43:54;29.67;;;15.32;;
71207;SDS011;58938;49.868;8.646;2023-05-16T04:46:20;36.20;;;16.77;;
71207;SDS011;58938;49.868;8.646;2023-05-16T04:48:46;30.73;;;15.20;;
71207;SDS011;58938;49.868;8.646;2023-05-16T04:51:12;33.97;;;14.57;;
71207;SDS011;58938;49.868;8.646;2023-05-16T04:53:39;34.67;;;15.43;;
71207;SDS011;58938;49.868;8.646;2023-05-16T04:56:06;31.08;;;14.68;;
71207;SDS011;58938;49.868;8.646;2023-05-16T04:58:32;29.83;;;13.87;;
71207;SDS011;58938;49.868;8.646;2023-05-16T05:00:58;31.02;;;14.98;;
71207;SDS011;58938;49.868;8.646;2023-05-16T05:03:24;29.15;;;14.40;;
71207;SDS011;58938;49.868;8.646;2023-05-16T05:05:50;26.65;;;13.43;;
71207;SDS011;58938;49.868;8.646;2023-05-16T05:08:17;29.98;;;13.75;;
71207;SDS011;58938;49.868;8.646;2023-05-16T05:10:43;28.47;;;14.33;;
71207;SDS011;58938;49.868;8.646;2023-05-16T05:13:09;25.33;;;13.20;;
71207;SDS011;58938;49.868;8.646;2023-05-16T05:15:36;23.23;;;12.10;;
71207;SDS011;58938;49.868;8.646;2023-05-16T05:18:02;23.92;;;12.07;;
71207;SDS011;58938;49.868;8.646;2023-05-16T05:20:28;30.60;;;15.32;;
71207;SDS011;58938;49.868;8.646;2023-05-16T05:22:54;19.00;;;9.73;;
71207;SDS011;58938;49.868;8.646;2023-05-16T05:25:20;22.48;;;9.82;;
71207;SDS011;58938;49.868;8.646;2023-05-16T05:27:46;17.63;;;6.63;;
71207;SDS011;58938;49.868;8.646;2023-05-16T05:30:12;13.15;;;7.13;;
71207;SDS011;58938;49.868;8.646;2023-05-16T05:32:38;13.65;;;7.40;;
71207;SDS011;58938;49.868;8.646;2023-05-16T05:35:04;12.90;;;6.53;;
71207;SDS011;58938;49.868;8.646;2023-05-16T05:37:31;12.80;;;5.65;;
71207;SDS011;58938;49.868;8.646;2023-05-16T05:39:57;10.73;;;5.50;;
71207;SDS011;58938;49.868;8.646;2023-05-16T05:42:23;11.73;;;5.75;;
71207;SDS011;58938;49.868;8.646;2023-05-16T05:44:49;14.02;;;5.53;;
71207;SDS011;58938;49.868;8.646;2023-05-16T05:47:15;9.37;;;5.30;;
71207;SDS011;58938;49.868;8.646;2023-05-16T05:49:42;12.18;;;7.57;;
71207;SDS011;58938;49.868;8.646;2023-05-16T05:52:08;11.13;;;5.75;;
71207;SDS011;58938;49.868;8.646;2023-05-16T05:54:34;9.90;;;4.53;;
71207;SDS011;58938;49.868;8.646;2023-05-16T05:57:00;9.13;;;5.15;;
71207;SDS011;58938;49.868;8.646;2023-05-16T05:59:26;11.83;;;5.37;;
71207;SDS011;58938;49.868;8.646;2023-05-16T06:01:52;9.80;;;4.75;;
71207;SDS011;58938;49.868;8.646;2023-05-16T06:04:18;8.73;;;4.38;;
71207;SDS011;58938;49.868;8.646;2023-05-16T06:06:45;8.07;;;4.32;;
71207;SDS011;58938;49.868;8.646;2023-05-16T06:09:11;10.40;;;4.93;;
71207;SDS011;58938;49.868;8.646;2023-05-16T06:11:38;8.93;;;4.60;;
71207;SDS011;58938;49.868;8.646;2023-05-16T06:14:03;7.60;;;4.75;;
71207;SDS011;58938;49.868;8.646;2023-05-16T06:16:29;7.95;;;5.13;;
71207;SDS011;58938;49.868;8.646;2023-05-16T06:18:55;7.22;;;4.30;;
71207;SDS011;58938;49.868;8.646;2023-05-16T06:21:21;7.50;;;4.10;;
71207;SDS011;58938;49.868;8.646;2023-05-16T06:23:48;6.38;;;3.78;;
71207;SDS011;58938;49.868;8.646;2023-05-16T06:26:14;7.80;;;4.30;;
71207;SDS011;58938;49.868;8.646;2023-05-16T06:28:40;7.20;;;3.30;;
71207;SDS011;58938;49.868;8.646;2023-05-16T06:31:06;7.10;;;3.60;;
71207;SDS011;58938;49.868;8.646;2023-05-16T06:33:32;8.07;;;3.50;;
71207;SDS011;58938;49.868;8.646;2023-05-16T06:35:58;6.90;;;3.47;;
71207;SDS011;58938;49.868;8.646;2023-05-16T06:38:24;6.93;;;4.18;;
71207;SDS011;58938;49.868;8.646;2023-05-16T06:40:50;6.25;;;3.67;;
71207;SDS011;58938;49.868;8.646;2023-05-16T06:43:16;7.70;;;3.97;;
71207;SDS011;58938;49.868;8.646;2023-05-16T06:45:45;8.25;;;3.72;;
71207;SDS011;58938;49.868;8.646;2023-05-16T06:48:12;5.80;;;2.83;;
71207;SDS011;58938;49.868;8.646;2023-05-16T06:50:41;5.60;;;3.10;;
71207;SDS011;58938;49.868;8.646;2023-05-16T06:53:07;4.75;;;2.60;;
71207;SDS011;58938;49.868;8.646;2023-05-16T06:55:33;6.87;;;2.83;;
71207;SDS011;58938;49.868;8.646;2023-05-16T06:57:59;4.88;;;2.60;;
71207;SDS011;58938;49.868;8.646;2023-05-16T07:00:25;5.75;;;2.42;;
71207;SDS011;58938;49.868;8.646;2023-05-16T07:02:51;4.78;;;2.30;;
71207;SDS011;58938;49.868;8.646;2023-05-16T07:05:17;5.77;;;2.27;;
71207;SDS011;58938;49.868;8.646;2023-05-16T07:07:43;4.18;;;2.10;;
71207;SDS011;58938;49.868;8.646;2023-05-16T07:10:09;5.55;;;2.20;;
71207;SDS011;58938;49.868;8.646;2023-05-16T07:12:36;5.90;;;2.33;;
71207;SDS011;58938;49.868;8.646;2023-05-16T07:15:02;3.90;;;2.25;;
71207;SDS011;58938;49.868;8.646;2023-05-16T07:17:28;8.20;;;3.03;;
71207;SDS011;58938;49.868;8.646;2023-05-16T07:19:54;4.30;;;2.45;;
71207;SDS011;58938;49.868;8.646;2023-05-16T07:22:20;6.45;;;2.78;;
71207;SDS011;58938;49.868;8.646;2023-05-16T07:24:46;6.50;;;2.92;;
71207;SDS011;58938;49.868;8.646;2023-05-16T07:27:12;4.77;;;2.70;;
71207;SDS011;58938;49.868;8.646;2023-05-16T07:29:38;5.10;;;2.40;;
71207;SDS011;58938;49.868;8.646;2023-05-16T07:32:04;6.22;;;3.10;;
71207;SDS011;58938;49.868;8.646;2023-05-16T07:34:30;7.65;;;3.25;;
71207;SDS011;58938;49.868;8.646;2023-05-16T07:36:56;5.63;;;3.13;;
71207;SDS011;58938;49.868;8.646;2023-05-16T07:39:22;7.05;;;2.92;;
71207;SDS011;58938;49.868;8.646;2023-05-16T07:41:48;6.18;;;2.90;;
71207;SDS011;58938;49.868;8.646;2023-05-16T07:44:14;6.10;;;3.25;;
71207;SDS011;58938;49.868;8.646;2023-05-16T07:46:40;5.17;;;2.83;;
71207;SDS011;58938;49.868;8.646;2023-05-16T07:49:08;5.20;;;2.60;;
71207;SDS011;58938;49.868;8.646;2023-05-16T07:51:34;5.85;;;3.35;;
71207;SDS011;58938;49.868;8.646;2023-05-16T07:54:00;5.32;;;2.83;;
71207;SDS011;58938;49.868;8.646;2023-05-16T07:56:26;5.53;;;3.33;;
71207;SDS011;58938;49.868;8.646;2023-05-16T07:58:52;6.13;;;2.97;;
71207;SDS011;58938;49.868;8.646;2023-05-16T08:01:18;5.82;;;2.50;;
71207;SDS011;58938;49.868;8.646;2023-05-16T08:03:45;5.07;;;3.03;;
71207;SDS011;58938;49.868;8.646;2023-05-16T08:06:11;6.63;;;2.72;;
71207;SDS011;58938;49.868;8.646;2023-05-16T08:08:36;4.90;;;2.73;;
71207;SDS011;58938;49.868;8.646;2023-05-16T08:11:03;6.00;;;2.88;;
71207;SDS011;58938;49.868;8.646;2023-05-16T08:13:29;6.72;;;2.67;;
71207;SDS011;58938;49.868;8.646;2023-05-16T08:15:55;5.03;;;2.25;;
71207;SDS011;58938;49.868;8.646;2023-05-16T08:18:21;7.80;;;3.17;;
71207;SDS011;58938;49.868;8.646;2023-05-16T08:20:48;6.43;;;2.67;;
71207;SDS011;58938;49.868;8.646;2023-05-16T08:23:14;3.80;;;2.08;;
71207;SDS011;58938;49.868;8.646;2023-05-16T08:25:40;4.32;;;2.25;;
71207;SDS011;58938;49.868;8.646;2023-05-16T08:28:07;4.35;;;2.10;;
71207;SDS011;58938;49.868;8.646;2023-05-16T08:30:33;4.72;;;2.42;;
71207;SDS011;58938;49.868;8.646;2023-05-16T08:32:59;5.50;;;2.43;;
71207;SDS011;58938;49.868;8.646;2023-05-16T08:35:29;3.22;;;1.70;;
71207;SDS011;58938;49.868;8.646;2023-05-16T08:37:55;3.72;;;2.10;;
71207;SDS011;58938;49.868;8.646;2023-05-16T08:40:24;3.95;;;1.60;;
71207;SDS011;58938;49.868;8.646;2023-05-16T08:42:51;7.53;;;2.15;;
71207;SDS011;58938;49.868;8.646;2023-05-16T08:45:17;4.53;;;2.00;;
71207;SDS011;58938;49.868;8.646;2023-05-16T08:47:44;5.03;;;2.05;;
71207;SDS011;58938;49.868;8.646;2023-05-16T08:50:10;4.30;;;1.90;;
71207;SDS011;58938;49.868;8.646;2023-05-16T08:52:37;3.85;;;2.30;;
71207;SDS011;58938;49.868;8.646;2023-05-16T08:55:04;3.80;;;1.67;;
71207;SDS011;58938;49.868;8.646;2023-05-16T08:57:32;3.90;;;1.90;;
71207;SDS011;58938;49.868;8.646;2023-05-16T08:59:58;4.05;;;2.10;;
71207;SDS011;58938;49.868;8.646;2023-05-16T09:02:25;5.70;;;2.45;;
71207;SDS011;58938;49.868;8.646;2023-05-16T09:04:51;5.72;;;2.45;;
71207;SDS011;58938;49.868;8.646;2023-05-16T09:07:17;4.20;;;2.30;;
71207;SDS011;58938;49.868;8.646;2023-05-16T09:09:43;3.93;;;2.33;;
71207;SDS011;58938;49.868;8.646;2023-05-16T09:12:09;7.47;;;2.70;;
71207;SDS011;58938;49.868;8.646;2023-05-16T09:14:36;5.78;;;2.40;;
71207;SDS011;58938;49.868;8.646;2023-05-16T09:17:05;4.20;;;2.30;;
71207;SDS011;58938;49.868;8.646;2023-05-16T09:19:38;5.53;;;2.50;;
71207;SDS011;58938;49.868;8.646;2023-05-16T09:22:05;4.77;;;1.80;;
71207;SDS011;58938;49.868;8.646;2023-05-16T09:24:31;5.22;;;2.28;;
71207;SDS011;58938;49.868;8.646;2023-05-16T09:27:06;4.68;;;2.30;;
71207;SDS011;58938;49.868;8.646;2023-05-16T09:29:33;5.35;;;2.53;;
71207;SDS011;58938;49.868;8.646;2023-05-16T09:32:12;5.53;;;2.33;;
71207;SDS011;58938;49.868;8.646;2023-05-16T09:34:44;4.28;;;2.10;;
71207;SDS011;58938;49.868;8.646;2023-05-16T09:37:13;4.88;;;2.60;;
71207;SDS011;58938;49.868;8.646;2023-05-16T09:39:44;5.25;;;2.47;;
71207;SDS011;58938;49.868;8.646;2023-05-16T09:42:14;5.18;;;2.80;;
71207;SDS011;58938;49.868;8.646;2023-05-16T09:44:44;5.90;;;2.30;;
71207;SDS011;58938;49.868;8.646;2023-05-16T09:47:13;6.25;;;2.95;;
71207;SDS011;58938;49.868;8.646;2023-05-16T09:49:40;7.85;;;3.22;;
71207;SDS011;58938;49.868;8.646;2023-05-16T09:52:06;8.25;;;3.28;;
71207;SDS011;58938;49.868;8.646;2023-05-16T09:54:32;5.07;;;2.60;;
71207;SDS011;58938;49.868;8.646;2023-05-16T09:56:59;7.17;;;3.07;;
71207;SDS011;58938;49.868;8.646;2023-05-16T09:59:27;5.95;;;2.70;;
71207;SDS011;58938;49.868;8.646;2023-05-16T10:01:54;6.90;;;3.05;;
71207;SDS011;58938;49.868;8.646;2023-05-16T10:04:22;5.28;;;2.50;;
71207;SDS011;58938;49.868;8.646;2023-05-16T10:06:48;5.82;;;2.58;;
71207;SDS011;58938;49.868;8.646;2023-05-16T10:09:16;4.87;;;3.10;;
71207;SDS011;58938;49.868;8.646;2023-05-16T10:11:43;5.40;;;2.78;;
71207;SDS011;58938;49.868;8.646;2023-05-16T10:14:10;6.43;;;3.00;;
71207;SDS011;58938;49.868;8.646;2023-05-16T10:16:37;6.00;;;2.10;;
71207;SDS011;58938;49.868;8.646;2023-05-16T10:19:04;6.65;;;3.10;;
71207;SDS011;58938;49.868;8.646;2023-05-16T10:21:30;5.63;;;2.73;;
71207;SDS011;58938;49.868;8.646;2023-05-16T10:23:57;8.32;;;3.00;;
71207;SDS011;58938;49.868;8.646;2023-05-16T10:26:24;7.95;;;3.10;;
71207;SDS011;58938;49.868;8.646;2023-05-16T10:28:50;5.65;;;2.78;;
71207;SDS011;58938;49.868;8.646;2023-05-16T10:31:17;6.75;;;2.95;;
71207;SDS011;58938;49.868;8.646;2023-05-16T10:33:44;6.63;;;2.33;;
71207;SDS011;58938;49.868;8.646;2023-05-16T10:36:10;5.65;;;2.72;;
71207;SDS011;58938;49.868;8.646;2023-05-16T10:38:37;4.97;;;3.03;;
71207;SDS011;58938;49.868;8.646;2023-05-16T10:41:03;5.18;;;2.47;;
71207;SDS011;58938;49.868;8.646;2023-05-16T10:43:29;6.07;;;2.50;;
71207;SDS011;58938;49.868;8.646;2023-05-16T10:45:58;5.50;;;2.80;;
71207;SDS011;58938;49.868;8.646;2023-05-16T10:48:31;5.63;;;2.85;;
71207;SDS011;58938;49.868;8.646;2023-05-16T10:50:58;6.43;;;2.85;;
71207;SDS011;58938;49.868;8.646;2023-05-16T10:53:33;4.25;;;2.63;;
71207;SDS011;58938;49.868;8.646;2023-05-16T10:59:03;6.10;;;2.83;;
71207;SDS011;58938;49.868;8.646;2023-05-16T11:01:32;7.55;;;2.70;;
71207;SDS011;58938;49.868;8.646;2023-05-16T11:06:31;4.28;;;2.70;;
71207;SDS011;58938;49.868;8.646;2023-05-16T11:14:16;6.13;;;2.63;;
71207;SDS011;58938;49.868;8.646;2023-05-16T11:16:47;7.70;;;2.88;;
71207;SDS011;58938;49.868;8.646;2023-05-16T11:19:18;7.35;;;3.47;;
71207;SDS011;58938;49.868;8.646;2023-05-16T11:22:05;6.20;;;2.70;;
71207;SDS011;58938;49.868;8.646;2023-05-16T11:24:32;7.53;;;3.05;;
71207;SDS011;58938;49.868;8.646;2023-05-16T11:26:59;7.50;;;3.00;;
71207;SDS011;58938;49.868;8.646;2023-05-16T11:29:30;7.78;;;3.20;;
71207;SDS011;58938;49.868;8.646;2023-05-16T11:32:00;8.75;;;3.58;;
71207;SDS011;58938;49.868;8.646;2023-05-16T11:34:26;8.10;;;3.50;;
71207;SDS011;58938;49.868;8.646;2023-05-16T11:36:52;9.05;;;3.78;;
71207;SDS011;58938;49.868;8.646;2023-05-16T11:39:20;6.40;;;3.20;;
71207;SDS011;58938;49.868;8.646;2023-05-16T11:41:46;7.85;;;3.20;;
71207;SDS011;58938;49.868;8.646;2023-05-16T11:44:12;9.98;;;3.30;;
71207;SDS011;58938;49.868;8.646;2023-05-16T11:46:39;10.97;;;2.90;;
71207;SDS011;58938;49.868;8.646;2023-05-16T11:49:05;10.85;;;3.28;;
71207;SDS011;58938;49.868;8.646;2023-05-16T11:51:33;8.57;;;3.60;;
71207;SDS011;58938;49.868;8.646;2023-05-16T11:53:59;7.82;;;3.00;;
71207;SDS011;58938;49.868;8.646;2023-05-16T11:56:28;9.85;;;3.60;;
71207;SDS011;58938;49.868;8.646;2023-05-16T11:58:55;7.83;;;2.93;;
71207;SDS011;58938;49.868;8.646;2023-05-16T12:01:23;8.35;;;3.22;;
71207;SDS011;58938;49.868;8.646;2023-05-16T12:03:53;7.72;;;3.38;;
71207;SDS011;58938;49.868;8.646;2023-05-16T12:06:19;7.50;;;2.92;;
71207;SDS011;58938;49.868;8.646;2023-05-16T12:08:56;7.45;;;2.90;;
71207;SDS011;58938;49.868;8.646;2023-05-16T12:11:23;6.67;;;3.07;;
71207;SDS011;58938;49.868;8.646;2023-05-16T12:13:49;6.70;;;3.17;;
71207;SDS011;58938;49.868;8.646;2023-05-16T12:16:16;7.07;;;2.97;;
71207;SDS011;58938;49.868;8.646;2023-05-16T12:18:44;6.55;;;2.30;;
71207;SDS011;58938;49.868;8.646;2023-05-16T12:21:10;10.23;;;2.70;;
71207;SDS011;58938;49.868;8.646;2023-05-16T12:23:37;7.67;;;2.57;;
71207;SDS011;58938;49.868;8.646;2023-05-16T12:26:03;8.57;;;2.35;;
71207;SDS011;58938;49.868;8.646;2023-05-16T12:28:31;10.35;;;2.88;;
71207;SDS011;58938;49.868;8.646;2023-05-16T12:31:03;6.88;;;2.40;;
71207;SDS011;58938;49.868;8.646;2023-05-16T12:33:31;5.85;;;2.85;;
71207;SDS011;58938;49.868;8.646;2023-05-16T12:36:02;9.27;;;3.17;;
71207;SDS011;58938;49.868;8.646;2023-05-16T12:38:28;6.88;;;2.55;;
71207;SDS011;58938;49.868;8.646;2023-05-16T12:40:57;6.97;;;2.83;;
71207;SDS011;58938;49.868;8.646;2023-05-16T12:43:23;9.20;;;2.78;;
71207;SDS011;58938;49.868;8.646;2023-05-16T12:45:53;8.43;;;2.75;;
71207;SDS011;58938;49.868;8.646;2023-05-16T12:48:20;9.67;;;2.43;;
71207;SDS011;58938;49.868;8.646;2023-05-16T12:50:47;7.53;;;2.72;;
71207;SDS011;58938;49.868;8.646;2023-05-16T12:53:14;6.50;;;3.13;;
71207;SDS011;58938;49.868;8.646;2023-05-16T12:55:40;7.57;;;2.42;;
71207;SDS011;58938;49.868;8.646;2023-05-16T12:58:07;6.82;;;2.78;;
71207;SDS011;58938;49.868;8.646;2023-05-16T13:00:33;10.53;;;2.63;;
71207;SDS011;58938;49.868;8.646;2023-05-16T13:03:00;8.13;;;2.15;;
71207;SDS011;58938;49.868;8.646;2023-05-16T13:05:27;5.70;;;2.28;;
71207;SDS011;58938;49.868;8.646;2023-05-16T13:07:53;9.93;;;2.25;;
71207;SDS011;58938;49.868;8.646;2023-05-16T13:10:19;8.88;;;2.70;;
71207;SDS011;58938;49.868;8.646;2023-05-16T13:12:45;10.90;;;3.30;;
71207;SDS011;58938;49.868;8.646;2023-05-16T13:15:11;7.65;;;2.40;;
71207;SDS011;58938;49.868;8.646;2023-05-16T13:17:38;9.68;;;2.80;;
71207;SDS011;58938;49.868;8.646;2023-05-16T13:20:04;9.32;;;2.25;;
71207;SDS011;58938;49.868;8.646;2023-05-16T13:22:36;8.52;;;2.65;;
71207;SDS011;58938;49.868;8.646;2023-05-16T13:25:03;7.63;;;2.20;;
71207;SDS011;58938;49.868;8.646;2023-05-16T13:27:29;6.10;;;2.35;;
71207;SDS011;58938;49.868;8.646;2023-05-16T13:29:56;7.20;;;2.20;;
71207;SDS011;58938;49.868;8.646;2023-05-16T13:32:22;9.15;;;2.35;;
71207;SDS011;58938;49.868;8.646;2023-05-16T13:34:48;7.97;;;1.95;;
71207;SDS011;58938;49.868;8.646;2023-05-16T13:37:14;7.53;;;2.03;;
71207;SDS011;58938;49.868;8.646;2023-05-16T13:39:40;6.55;;;2.20;;
71207;SDS011;58938;49.868;8.646;2023-05-16T13:42:06;5.13;;;1.98;;
71207;SDS011;58938;49.868;8.646;2023-05-16T13:44:33;6.50;;;2.00;;
71207;SDS011;58938;49.868;8.646;2023-05-16T13:46:59;6.82;;;2.63;;
71207;SDS011;58938;49.868;8.646;2023-05-16T13:49:25;5.43;;;1.90;;
71207;SDS011;58938;49.868;8.646;2023-05-16T13:51:51;5.55;;;2.15;;
71207;SDS011;58938;49.868;8.646;2023-05-16T13:54:17;7.35;;;2.47;;
71207;SDS011;58938;49.868;8.646;2023-05-16T13:56:43;6.63;;;2.08;;
71207;SDS011;58938;49.868;8.646;2023-05-16T13:59:09;7.63;;;2.40;;
71207;SDS011;58938;49.868;8.646;2023-05-16T14:01:35;5.85;;;1.92;;
71207;SDS011;58938;49.868;8.646;2023-05-16T14:04:02;6.43;;;2.10;;
71207;SDS011;58938;49.868;8.646;2023-05-16T14:06:27;6.45;;;2.03;;
71207;SDS011;58938;49.868;8.646;2023-05-16T14:08:53;7.35;;;2.42;;
71207;SDS011;58938;49.868;8.646;2023-05-16T14:11:19;7.47;;;2.50;;
71207;SDS011;58938;49.868;8.646;2023-05-16T14:13:50;5.03;;;2.30;;
71207;SDS011;58938;49.868;8.646;2023-05-16T14:16:17;6.85;;;1.80;;
71207;SDS011;58938;49.868;8.646;2023-05-16T14:18:43;7.70;;;2.28;;
71207;SDS011;58938;49.868;8.646;2023-05-16T14:21:09;10.33;;;2.10;;
71207;SDS011;58938;49.868;8.646;2023-05-16T14:23:35;5.28;;;1.80;;
71207;SDS011;58938;49.868;8.646;2023-05-16T14:26:01;5.97;;;2.08;;
71207;SDS011;58938;49.868;8.646;2023-05-16T14:28:28;5.40;;;2.00;;
71207;SDS011;58938;49.868;8.646;2023-05-16T14:30:56;7.18;;;2.03;;
71207;SDS011;58938;49.868;8.646;2023-05-16T14:33:22;8.40;;;2.30;;
71207;SDS011;58938;49.868;8.646;2023-05-16T14:35:48;5.80;;;2.08;;
71207;SDS011;58938;49.868;8.646;2023-05-16T14:38:15;7.57;;;1.92;;
71207;SDS011;58938;49.868;8.646;2023-05-16T14:40:41;5.70;;;2.00;;
71207;SDS011;58938;49.868;8.646;2023-05-16T14:43:06;7.70;;;1.87;;
71207;SDS011;58938;49.868;8.646;2023-05-16T14:45:33;4.97;;;1.73;;
71207;SDS011;58938;49.868;8.646;2023-05-16T14:47:59;7.65;;;2.20;;
71207;SDS011;58938;49.868;8.646;2023-05-16T14:50:26;9.98;;;2.13;;
71207;SDS011;58938;49.868;8.646;2023-05-16T14:52:52;7.13;;;2.30;;
71207;SDS011;58938;49.868;8.646;2023-05-16T14:55:18;6.13;;;2.37;;
71207;SDS011;58938;49.868;8.646;2023-05-16T14:57:45;7.85;;;2.55;;
71207;SDS011;58938;49.868;8.646;2023-05-16T15:00:11;6.68;;;2.42;;